createdAt,value
2023-02-23T00:01:57.390Z,10.18
2023-02-23T00:06:59.884Z,10.27
2023-02-23T00:12:07.776Z,11.07
2023-02-23T00:17:14.651Z,11.13
2023-02-23T00:22:18.568Z,10.90
2023-02-23T00:27:21.433Z,11.40
2023-02-23T00:32:24.601Z,11.50
2023-02-23T00:37:27.101Z,10.68
2023-02-23T00:42:32.372Z,11.05
2023-02-23T00:47:37.404Z,11.48
2023-02-23T00:52:40.816Z,10.80
2023-02-23T00:57:43.533Z,10.60
2023-02-23T01:02:47.269Z,10.43
2023-02-23T01:07:51.131Z,11.15
2023-02-23T01:12:54.001Z,11.57
2023-02-23T01:17:57.149Z,11.15
2023-02-23T01:22:59.578Z,11.50
2023-02-23T01:28:02.089Z,11.13
2023-02-23T01:33:05.399Z,11.35
2023-02-23T01:38:07.919Z,10.85
2023-02-23T01:43:14.336Z,11.43
2023-02-23T01:48:21.303Z,10.68
2023-02-23T01:53:28.655Z,11.20
2023-02-23T01:58:33.844Z,11.55
2023-02-23T02:03:38.384Z,11.30
2023-02-23T02:08:45.998Z,10.80
2023-02-23T02:13:48.617Z,11.45
2023-02-23T02:19:06.228Z,11.55
2023-02-23T02:24:47.651Z,11.40
2023-02-23T02:30:02.062Z,10.85
2023-02-23T02:35:13.653Z,11.02
2023-02-23T02:40:19.225Z,11.57
2023-02-23T02:45:27.948Z,11.80
2023-02-23T02:50:34.872Z,11.15
2023-02-23T02:55:43.676Z,10.70
2023-02-23T03:01:08.121Z,11.23
2023-02-23T03:06:29.240Z,11.57
2023-02-23T03:11:54.513Z,11.05
2023-02-23T03:17:15.672Z,10.75
2023-02-23T03:22:48.747Z,10.85
2023-02-23T03:28:15.791Z,11.73
2023-02-23T03:33:40.917Z,12.15
2023-02-23T03:39:29.226Z,11.90
2023-02-23T03:44:53.180Z,13.55
2023-02-23T03:50:14.926Z,12.48
2023-02-23T03:55:39.090Z,11.88
2023-02-23T04:01:05.089Z,13.13
2023-02-23T04:06:30.147Z,12.57
2023-02-23T04:12:20.524Z,12.63
2023-02-23T04:17:25.655Z,13.13
2023-02-23T04:22:28.106Z,13.40
2023-02-23T04:27:30.613Z,21.83
2023-02-23T04:32:33.229Z,14.32
2023-02-23T04:37:35.766Z,13.32
2023-02-23T04:42:38.484Z,13.23
2023-02-23T04:47:41.107Z,12.57
2023-02-23T04:52:43.657Z,12.13
2023-02-23T04:57:46.118Z,12.05
2023-02-23T05:02:50.612Z,12.90
2023-02-23T05:07:55.159Z,12.45
2023-02-23T05:12:58.068Z,13.65
2023-02-23T05:18:00.500Z,15.23
2023-02-23T05:23:02.913Z,15.15
2023-02-23T05:28:05.565Z,12.68
2023-02-23T05:33:08.018Z,12.98
2023-02-23T05:38:10.446Z,13.88
2023-02-23T05:43:13.013Z,14.52
2023-02-23T05:48:15.456Z,13.88
2023-02-23T05:53:18.503Z,14.77
2023-02-23T05:58:21.022Z,13.75
2023-02-23T06:03:24.105Z,13.43
2023-02-23T06:08:26.866Z,13.18
2023-02-23T06:13:29.730Z,12.05
2023-02-23T06:18:32.367Z,12.82
2023-02-23T06:23:34.860Z,12.82
2023-02-23T06:28:37.365Z,12.50
2023-02-23T06:33:40.056Z,11.90
2023-02-23T06:38:45.156Z,13.93
2023-02-23T06:43:47.578Z,12.30
2023-02-23T06:48:50.157Z,12.10
2023-02-23T06:53:55.441Z,12.55
2023-02-23T06:58:57.954Z,11.25
2023-02-23T07:04:00.741Z,11.68
2023-02-23T07:09:04.030Z,11.85
2023-02-23T07:14:10.712Z,12.05
2023-02-23T07:19:15.655Z,10.88
2023-02-23T07:24:18.393Z,11.68
2023-02-23T07:29:21.118Z,11.43
2023-02-23T07:34:23.957Z,11.57
2023-02-23T07:39:26.680Z,11.60
2023-02-23T07:44:29.412Z,11.68
2023-02-23T07:49:33.191Z,12.05
2023-02-23T07:54:36.133Z,12.23
2023-02-23T07:59:39.491Z,11.75
2023-02-23T08:04:43.478Z,11.85
2023-02-23T08:09:46.441Z,11.80
2023-02-23T08:14:49.582Z,11.77
2023-02-23T08:19:52.711Z,12.63
2023-02-23T08:24:57.763Z,11.98
2023-02-23T08:30:04.195Z,13.10
2023-02-23T08:35:07.850Z,12.40
2023-02-23T08:40:12.693Z,11.90
2023-02-23T08:45:15.415Z,12.45
2023-02-23T08:50:17.966Z,11.90
2023-02-23T08:55:21.868Z,11.30
2023-02-23T09:00:24.604Z,11.95
2023-02-23T09:05:27.232Z,11.40
2023-02-23T09:10:29.802Z,12.25
2023-02-23T09:15:32.311Z,12.00
2023-02-23T09:20:34.886Z,11.68
2023-02-23T09:25:44.831Z,12.60
2023-02-23T09:30:47.735Z,12.50
2023-02-23T09:35:50.549Z,11.90
2023-02-23T09:40:54.545Z,11.60
2023-02-23T09:46:02.436Z,12.60
2023-02-23T09:51:07.128Z,12.40
2023-02-23T09:56:14.840Z,11.40
2023-02-23T10:01:38.960Z,12.88
2023-02-23T10:06:43.823Z,12.02
2023-02-23T10:11:51.936Z,12.98
2023-02-23T10:17:01.309Z,12.82
2023-02-23T10:22:06.844Z,14.57
2023-02-23T10:27:10.396Z,12.60
2023-02-23T10:32:19.951Z,13.18
2023-02-23T10:37:24.335Z,14.77
2023-02-23T10:42:32.426Z,13.60
2023-02-23T10:47:36.008Z,13.90
2023-02-23T10:52:48.589Z,13.98
2023-02-23T10:58:00.618Z,14.55
2023-02-23T11:03:15.957Z,14.38
2023-02-23T11:08:20.588Z,15.30
2023-02-23T11:13:24.203Z,15.27
2023-02-23T11:18:27.483Z,15.52
2023-02-23T11:23:32.161Z,15.77
2023-02-23T11:28:36.503Z,16.42
2023-02-23T11:33:40.105Z,16.23
2023-02-23T11:38:42.863Z,16.48
2023-02-23T11:43:56.695Z,15.77
2023-02-23T11:49:05.734Z,15.50
2023-02-23T11:54:18.348Z,26.05
2023-02-23T11:59:40.430Z,19.60
2023-02-23T12:04:47.901Z,17.67
2023-02-23T12:09:56.113Z,17.25
2023-02-23T12:15:11.896Z,17.67
2023-02-23T12:20:17.785Z,16.42
2023-02-23T12:25:29.772Z,17.55
2023-02-23T12:30:41.022Z,16.90
2023-02-23T12:35:51.844Z,16.40
2023-02-23T12:40:59.088Z,17.23
2023-02-23T12:46:23.417Z,17.67
2023-02-23T12:51:44.905Z,16.88
2023-02-23T12:56:47.674Z,17.17
2023-02-23T13:01:54.892Z,17.35
2023-02-23T13:07:05.039Z,16.58
2023-02-23T13:12:14.252Z,16.63
2023-02-23T13:17:37.388Z,16.95
2023-02-23T13:22:40.607Z,16.40
2023-02-23T13:27:46.379Z,16.77
2023-02-23T13:32:49.615Z,17.05
2023-02-23T13:37:54.537Z,17.38
2023-02-23T13:43:01.807Z,17.75
2023-02-23T13:48:23.873Z,20.15
2023-02-23T13:53:47.279Z,18.07
2023-02-23T13:58:54.404Z,16.77
2023-02-23T14:04:13.114Z,17.27
2023-02-23T14:09:22.380Z,17.50
2023-02-23T14:14:38.743Z,17.23
2023-02-23T14:19:42.583Z,17.10
2023-02-23T14:24:45.328Z,17.30
2023-02-23T14:30:16.275Z,18.80
2023-02-23T14:35:34.318Z,18.13
2023-02-23T14:40:41.329Z,18.20
2023-02-23T14:45:46.609Z,17.65
2023-02-23T14:50:49.786Z,19.20
2023-02-23T14:55:52.689Z,19.70
2023-02-23T15:00:55.382Z,18.83
2023-02-23T15:06:00.233Z,18.88
2023-02-23T15:11:03.272Z,22.98
2023-02-23T15:16:07.961Z,21.42
2023-02-23T15:21:21.304Z,22.80
2023-02-23T15:26:24.821Z,21.77
2023-02-23T15:31:30.380Z,21.83
2023-02-23T15:36:35.157Z,23.92
2023-02-23T15:41:38.508Z,22.30
2023-02-23T15:46:42.871Z,24.00
2023-02-23T15:51:50.380Z,24.23
2023-02-23T15:56:57.941Z,25.73
2023-02-23T16:02:03.178Z,24.02
2023-02-23T16:07:14.895Z,25.50
2023-02-23T16:12:22.164Z,26.00
2023-02-23T16:17:42.976Z,27.35
2023-02-23T16:22:53.728Z,25.63
2023-02-23T16:28:09.757Z,24.02
2023-02-23T16:33:19.055Z,25.55
2023-02-23T16:38:54.052Z,29.75
2023-02-23T16:43:59.046Z,25.73
2023-02-23T16:49:10.199Z,28.52
2023-02-23T16:54:13.273Z,25.70
2023-02-23T16:59:17.664Z,28.83
2023-02-23T17:04:20.999Z,28.13
2023-02-23T17:09:25.199Z,29.50
2023-02-23T17:14:33.397Z,31.02
2023-02-23T17:19:36.308Z,29.98
2023-02-23T17:24:43.569Z,29.58
2023-02-23T17:29:46.085Z,29.55
2023-02-23T17:34:50.535Z,29.85
2023-02-23T17:39:53.444Z,32.05
2023-02-23T17:44:56.212Z,31.45
2023-02-23T17:49:59.641Z,32.15
2023-02-23T17:55:02.686Z,29.40
2023-02-23T18:00:07.091Z,30.65
2023-02-23T18:05:14.445Z,31.85
2023-02-23T18:10:17.521Z,34.60
2023-02-23T18:15:21.469Z,33.50
2023-02-23T18:20:24.928Z,35.80
2023-02-23T18:25:28.912Z,35.90
2023-02-23T18:30:32.110Z,35.45
2023-02-23T18:35:39.134Z,35.17
2023-02-23T18:40:41.930Z,37.58
2023-02-23T18:45:44.882Z,42.30
2023-02-23T18:50:47.679Z,35.38
2023-02-23T18:55:51.040Z,34.70
2023-02-23T19:00:55.196Z,35.67
2023-02-23T19:06:03.492Z,32.75
2023-02-23T19:11:06.235Z,38.33
2023-02-23T19:16:08.850Z,32.95
2023-02-23T19:21:11.680Z,34.72
2023-02-23T19:26:15.748Z,32.55
2023-02-23T19:31:21.431Z,30.58
2023-02-23T19:36:30.049Z,34.35
2023-02-23T19:57:12.797Z,28.50
2023-02-23T20:02:16.268Z,26.55
2023-02-23T20:07:19.333Z,27.25
2023-02-23T20:12:22.518Z,28.33
2023-02-23T20:17:25.619Z,22.80
2023-02-23T20:22:28.695Z,15.70
2023-02-23T20:27:32.269Z,14.95
2023-02-23T20:32:35.514Z,14.30
2023-02-23T20:37:38.423Z,16.52
2023-02-23T20:42:41.720Z,15.88
2023-02-23T20:47:47.210Z,15.85
2023-02-23T20:52:50.751Z,17.63
2023-02-23T20:57:54.128Z,19.45
2023-02-23T21:02:56.830Z,18.65
2023-02-23T21:08:00.508Z,20.02
2023-02-23T21:13:04.160Z,18.85
2023-02-23T21:18:07.622Z,18.77
2023-02-23T21:23:10.448Z,20.10
2023-02-23T21:28:13.665Z,20.65
2023-02-23T21:33:17.241Z,21.50
2023-02-23T21:38:20.339Z,21.40
2023-02-23T21:43:24.396Z,21.10
2023-02-23T21:48:27.312Z,19.15
2023-02-23T21:53:30.690Z,20.25
2023-02-23T21:58:33.607Z,19.98
2023-02-23T22:03:36.149Z,22.52
2023-02-23T22:08:38.829Z,21.48
2023-02-23T22:13:48.120Z,24.27
2023-02-23T22:18:50.877Z,20.95
2023-02-23T22:23:54.308Z,21.40
2023-02-23T22:28:56.825Z,21.13
2023-02-23T22:33:59.519Z,22.17
2023-02-23T22:39:02.294Z,22.55
2023-02-23T22:44:05.438Z,23.98
2023-02-23T22:49:10.675Z,22.58
2023-02-23T22:54:17.698Z,21.27
2023-02-23T22:59:20.796Z,21.42
2023-02-23T23:04:24.360Z,18.27
2023-02-23T23:09:28.476Z,20.58
2023-02-23T23:14:33.023Z,20.15
2023-02-23T23:19:39.233Z,18.50
2023-02-23T23:24:46.319Z,22.17
2023-02-23T23:29:48.935Z,19.70
2023-02-23T23:34:53.973Z,18.63
2023-02-23T23:39:59.651Z,18.10
2023-02-23T23:45:02.365Z,17.45
2023-02-23T23:50:10.874Z,18.55
2023-02-23T23:55:15.053Z,17.73
